KMDT Airport Information

Runway Information
Runway 13 Length 10001 ft width 200 ft
Elevation 308 ft Threshold 993 ft Heading 117
Runway 31 Length 10001 ft Width 200 ft
Elevation 308 ft Threshold 994 ft Heading 297
Airport Frequencies
Type A/D Name APP/DEP Frequency 118.25 MHZ
Type ATIS Name ATIS Frequency 118.8 MHZ
Type GND Name GND Frequency 121.7 MHZ
Type OPS Name ANG OPS Frequency 39.51 MHZ
Type TWR Name TWR Frequency 124.8 MHZ
Airport Navaids
Type VORTAC Name Harrisburg Frequency 112500 KHZ
Type NDB Name Enola Frequency 204 KHZ
Airport Weather Information & NOTAM
ADDS - METARS form results

(1454 UTC 07 August 2020)
Data provider http://aviationweather.gov/metar/data/
 
METAR text: KMDT 071442Z 10005KT 3SM -RA BR SCT006 OVC011 23/22 A3011 RMK AO2 RAB18 P0000 T02330217
Conditions at: KMDT (MIDDLETOWN , PA, US) observed 1442 UTC 07 August 2020
Temperature: 23.3°C (74°F)
Dewpoint: 21.7°C (71°F) [RH = 91%]
Pressure (altimeter): 30.11 inches Hg (1019.7 mb)
Winds: from the E (100 degrees) at 6 MPH (5 knots; 2.6 m/s)
Visibility: 3 miles ( 5 km)
Ceiling: 1100 feet AGL
Clouds: scattered clouds at 600 feet AGL
overcast cloud deck at 1100 feet AGL
Weather: -RA BR  (light rain, mist)

METAR text: KMDT 071432Z 11007KT 2 1/2SM -RA BR OVC007 23/21 A3011 RMK AO2 SFC VIS 3 RAB18 CIG 005V010 P0000 T02280211
Conditions at: KMDT (MIDDLETOWN , PA, US) observed 1432 UTC 07 August 2020
Temperature: 22.8°C (73°F)
Dewpoint: 21.1°C (70°F) [RH = 90%]
Pressure (altimeter): 30.11 inches Hg (1019.7 mb)
Winds: from the ESE (110 degrees) at 8 MPH (7 knots; 3.6 m/s)
Visibility: 2.50 miles (4.02 km)
Ceiling: 700 feet AGL
Clouds: overcast cloud deck at 700 feet AGL
Weather: -RA BR  (light rain, mist)

METAR text: KMDT 071356Z 11008KT 7SM OVC008 23/21 A3011 RMK AO2 CIG 007V012 SLP196 T02280206
Conditions at: KMDT (MIDDLETOWN , PA, US) observed 1356 UTC 07 August 2020
Temperature: 22.8°C (73°F)
Dewpoint: 20.6°C (69°F) [RH = 87%]
Pressure (altimeter): 30.11 inches Hg (1019.7 mb)
[Sea-level pressure: 1019.6 mb]
Winds: from the ESE (110 degrees) at 9 MPH (8 knots; 4.1 m/s)
Visibility: 7 miles (11 km)
Ceiling: 800 feet AGL
Clouds: overcast cloud deck at 800 feet AGL
Weather: no significant weather observed at this time

Forecast for: KMDT (MIDDLETOWN , PA, US)
Text: KMDT 071135Z 0712/0812 07005KT P6SM OVC010
Forecast period: 1200 to 1400 UTC 07 August 2020
Forecast type: FROM: standard forecast or significant change
Winds: from the ENE (70 degrees) at 6 MPH (5 knots; 2.6 m/s)
Visibility: 6 or more miles (10+ km)
Ceiling: 1000 feet AGL
Clouds: overcast cloud deck at 1000 feet AGL
Weather: no significant weather forecast for this period
Text: FM071400 09004KT P6SM BKN020 OVC070
Forecast period: 1400 to 1530 UTC 07 August 2020
Forecast type: FROM: standard forecast or significant change
Winds: from the E (90 degrees) at 5 MPH (4 knots; 2.1 m/s)
Visibility: 6 or more miles (10+ km)
Ceiling: 2000 feet AGL
Clouds: broken clouds at 2000 feet AGL
overcast cloud deck at 7000 feet AGL
Weather: no significant weather forecast for this period
Text: FM071530 11004KT P6SM VCSH BKN040
Forecast period: 1530 to 1900 UTC 07 August 2020
Forecast type: FROM: standard forecast or significant change
Winds: from the ESE (110 degrees) at 5 MPH (4 knots; 2.1 m/s)
Visibility: 6 or more miles (10+ km)
Ceiling: 4000 feet AGL
Clouds: broken clouds at 4000 feet AGL
Weather: VCSH  (showers in vicinity)
Text: FM071900 13004KT P6SM -SHRA VCTS BKN050CB
Forecast period: 1900 UTC 07 August 2020 to 0000 UTC 08 August 2020
Forecast type: FROM: standard forecast or significant change
Winds: from the SE (130 degrees) at 5 MPH (4 knots; 2.1 m/s)
Visibility: 6 or more miles (10+ km)
Ceiling: 5000 feet AGL
Clouds: broken clouds at 5000 feet AGL
Weather: -SHRA VCTS  (light rain showers, thunderstorm in vicinity)
Text: FM080000 31003KT P6SM BKN040
Forecast period: 0000 to 0900 UTC 08 August 2020
Forecast type: FROM: standard forecast or significant change
Winds: from the NW (310 degrees) at 3 MPH (3 knots; 1.5 m/s)
Visibility: 6 or more miles (10+ km)
Ceiling: 4000 feet AGL
Clouds: broken clouds at 4000 feet AGL
Weather: no significant weather forecast for this period
Text: FM080900 00000KT 2SM BR SCT030
Forecast period: 0900 to 1200 UTC 08 August 2020
Forecast type: FROM: standard forecast or significant change
Winds: calm
Visibility: 2.00 miles (3.22 km)
Ceiling: at least 12,000 feet AGL
Clouds: scattered clouds at 3000 feet AGL
Weather: BR  (mist)